Flight Track Log - Related Links

Times and Time Zones

All times are in EDT time to prevent confusion due to time zone crossing. See the SWA59 flight status page for this flight to view local times or setup timezone preferences in your user account.

Time Position Orientation Groundspeed Altitude Reporting Facility
EDT Latitude Longitude Course Direction KTS MPH feet Rate Location/Type
Sun 10:09:04 PM 32.8333 -96.8333 157° South 152 175 1,400  Level Dallas / Fort Worth TRACON
Sun 10:09:46 PM 32.8000 -96.8167 157° South 174 200 2,700 2,000 Climbing Dallas / Fort Worth TRACON
Sun 10:10:46 PM 32.7500 -96.7833 151° Southeast 251 289 4,800 2,531 Climbing Dallas / Fort Worth TRACON
Sun 10:12:13 PM 32.6503 -96.8036 190° South 272 313 8,900 2,514 Climbing Fort Worth Center
Sun 10:13:14 PM 32.5692 -96.8328 197° South 303 349 11,000 2,927 Climbing Fort Worth Center
Sun 10:14:16 PM 32.4750 -96.8681 198° South 328 377 14,900 3,317 Climbing Fort Worth Center
Sun 10:15:17 PM 32.3822 -96.9011 197° South 345 397 17,800 2,754 Climbing Fort Worth Center
Sun 10:16:18 PM 32.2825 -96.9347 196° South 370 426 20,500 2,537 Climbing Fort Worth Center
Sun 10:17:20 PM 32.1786 -96.9183 172° South 387 445 23,000 2,244 Climbing Fort Worth Center
Sun 10:18:21 PM 32.0686 -96.8997 172° South 395 455 25,100 2,016 Climbing Fort Worth Center
Sun 10:19:22 PM 31.9386 -96.8781 172° South 426 490 27,100 1,561 Climbing Fort Worth Center
Sun 10:20:24 PM 31.8119 -96.8547 171° South 454 522 28,300 1,659 Climbing Fort Worth Center
Sun 10:21:25 PM 31.6819 -96.8333 172° South 468 539 30,500 2,016 Climbing Fort Worth Center
Sun 10:22:26 PM 31.5528 -96.8131 172° South 468 539 32,400 1,230 Climbing Fort Worth Center
Sun 10:23:27 PM 31.4258 -96.7833 169° South 468 539 33,000 336 Climbing Fort Worth Center
Sun 10:24:13 PM 31.3264 -96.7353 158° South 465 535 33,000  Level Houston Center
Sun 10:25:14 PM 31.2036 -96.6758 158° South 470 541 33,000  Level Houston Center
Sun 10:26:15 PM 31.0814 -96.6167 157° South 471 542 33,000 -492 Level Houston Center
Sun 10:27:16 PM 30.9608 -96.5606 158° South 469 540 32,000 -2,361 Descending Houston Center
Sun 10:28:17 PM 30.8400 -96.5028 158° South 467 537 28,200 -3,393 Descending Houston Center
Sun 10:29:18 PM 30.7219 -96.4486 158° South 459 528 25,100 -3,148 Descending Houston Center
Sun 10:30:19 PM 30.6078 -96.3950 158° South 446 513 21,800 -3,171 Descending Houston Center
Sun 10:31:21 PM 30.4986 -96.3436 158° South 426 490 18,600 -3,383 Descending Houston Center
Sun 10:31:53 PM 30.4219 -96.3072 158° South 413 475 16,500 -3,000 Descending Houston Center
Sun 10:32:21 PM 30.3925 -96.2944 159° South 412 474 15,600 -2,629 Descending Houston Center
Sun 10:33:22 PM 30.2928 -96.2469 158° South 390 449 12,600 -2,244 Descending Houston Center
Sun 10:34:24 PM 30.1989 -96.2039 158° South 366 421 11,000 -1,263 Descending Houston Center
Sun 10:34:38 PM 30.1639 -96.1839 154° Southeast 349 402 11,000 -197 Level Houston Center
Sun 10:35:25 PM 30.0972 -96.1481 155° Southeast 354 407 10,800 -393 Descending Houston Center
Sun 10:35:39 PM 30.0761 -96.1383 158° South 328 377 10,600 -1,082 Descending Houston Center
Sun 10:36:26 PM 30.0217 -96.1092 155° Southeast 303 349 9,700 -1,444 Descending Houston Center
Sun 10:37:27 PM 29.9522 -96.0708 154° Southeast 283 326 8,000 -1,328 Descending Houston Center
Sun 10:38:28 PM 29.8831 -96.0339 155° Southeast 275 316 7,000 -492 Descending Houston Center
Sun 10:39:29 PM 29.8425 -95.9753 129° Southeast 280 322 7,000  Level Houston Center
Sun 10:40:31 PM 29.8364 -95.8669 94° East 282 325 7,000  Level Houston Center
Sun 10:40:43 PM 29.8350 -95.8500 95° East 282 325 7,000 -98 Level Houston Center
Sun 10:41:32 PM 29.8294 -95.7772 95° East 282 325 6,900 -982 Descending Houston Center
Sun 10:42:33 PM 29.8225 -95.6897 95° East 280 322 5,200 -1,655 Descending Houston Center
Sun 10:43:28 PM 29.8158 -95.6092 95° East 268 308 3,700 -1,082 Descending Houston Center
Sun 10:44:35 PM 29.8092 -95.5217 95° East 262 302 3,000 -614 Descending Houston Center
Sun 10:45:35 PM 29.7786 -95.4547 118° Southeast 207 238 2,400 -496 Descending Houston Center
Sun 10:46:36 PM 29.7425 -95.4036 129° Southeast 196 226 2,000 -242 Descending Houston Center
Sun 10:47:39 PM 29.7153 -95.3608 126° Southeast 195 224 1,900 -443 Descending Houston Center
Sun 10:48:38 PM 29.6897 -95.3306 134° Southeast 114 131 1,100 -700 Descending Houston Center
Sun 10:49:39 PM 29.6661 -95.3047 136° Southeast 118 136 500 -590 Descending Houston Center
Sun 10:52:00 PM 29.6454 -95.2789 115° Southeast  Level Estimated

Login

Don't have an account? Register now (free) for customized features, flight alerts, and more!